Fairchild Air Force Base
KSKA : now visible

Airfield :











YOU CAN JOIN US ON...

 
LOGIN :

Register | Disclaimer

   EN    FR    IT 

 









Legend :    VFR   Marginal VFR   IFR   Intensive IFR   Very Intensive IFR
Visi :
Ceiling :
>= 8 km
>= 3000ft
5 to 8 km
1000 to 3000 ft
1500m to 5 km
500 to 1000 ft
800 to 1500m
200 to 500 ft
< 800m
< 200 ft
Symbols :   Thunderstorms  Fog  Heavy snow  Heavy precipitations  Wind > 20 kt






- Airport Elevation : 2461 ft


KSKA - Fairchild Air Force Base

CURRENT METAR :
  • 211832Z 08004KT 10SM SCT055 OVC070 04/02 A2996 RMK AO2A SNE10RAB12E21RAB23E32 SLP164 $

EXPIRED METARs :
  • 211812Z 06003KT 10SM -RA FEW004 FEW011 SCT021 OVC055 03/02 A2996 RMK AO2A SNE10RAB12 SLP164 $
  • 211758Z 04007KT 5SM -SN FEW004 SCT012 BKN023 BKN030 OVC055 03/01 A2996 RMK AO2A RAB31E40SNB58 CIG 023V030 SLP164 P0000 60000 T00330013 10038 21007 52013 $
  • 211740Z 02007KT 10SM SCT045 OVC060 04/02 A2996 RMK AO2A RAB31E40 SLP162 $
  • 211731Z 01010KT 10SM -RA OVC060 04/02 A2996 RMK AO2A RAB31 SLP162 $
  • 211658Z 26003KT 10SM FEW032 FEW042 SCT050 SCT060 BKN075 03/01 A2995 RMK AO2A RAB46E55 SLP161 P0000 T00310013 $

TAF AMD TAF KSKA
Valid from the 21 at 14:00 until the 22 at 17:00 UTC


211420Z 2114/2217 23009KT 9999 SKC QNH2989INS
BECMG 2114/2115 22009KT 9999 VCSH FEW030 BKN040 610409 QNH2989INS
TEMPO 2116/2120 22012G18KT 8000 -SHRASN BKN025 OVC040 610259
BECMG 2201/2202 30009KT 9999 NSW SCT050 QNH2997INS WND 05007KT AFT 2212 TX08/2120Z TNM01/2114Z
KZSE FIR / North America



MET'MAP, your aeronautical weather chart ! - Copyright ORBIFLY December 2007 - Disclaimer

ORBIFLY MET'MAP TEAM :

Programming & Development : Alexandra Zaïnal
Concept & original design : Baudouin d'Aumeries
Assistance for programming : Marc-Olivier Méhu
Technical & hardware support : Manuel Goepfert

Contact : metmap@orbifly.com




SOURCES & CREDITS :

   NOAA       Earth
Advisory